Time;durP1;ratioP1;P1;durP2;ratioP2;P2;SDS_P1;SDS_P2;PMS_P1;PMS_P2;Temp;Humidity;BMP_temperature;BMP_pressure;BME280_temperature;BME280_humidity;BME280_pressure;Samples;Min_cycle;Max_cycle;Signal;HPM_P1;HPM_P2
2021/05/02 00:00:38;;;;;;;152.65;71.65;;;5.60;99.90;;;;;;5005871;28;20064;-90
2021/05/02 00:03:06;;;;;;;147.50;69.85;;;5.60;99.90;;;;;;5015267;28;20050;-90
2021/05/02 00:05:35;;;;;;;149.82;69.97;;;5.60;99.90;;;;;;5026725;28;20504;-89
2021/05/02 00:08:03;;;;;;;142.10;70.90;;;5.50;99.90;;;;;;5017812;28;20144;-88
2021/05/02 00:10:32;;;;;;;136.60;68.05;;;5.40;99.90;;;;;;5012688;28;20072;-87
2021/05/02 00:13:00;;;;;;;145.27;68.78;;;5.40;99.90;;;;;;5013953;28;20533;-86
2021/05/02 00:15:27;;;;;;;142.98;70.05;;;5.40;99.90;;;;;;5013551;28;20045;-88
2021/05/02 00:17:56;;;;;;;131.88;65.95;;;5.30;99.90;;;;;;5013428;28;20697;-88
2021/05/02 00:20:27;;;;;;;132.77;67.18;;;5.30;99.90;;;;;;5005674;28;20049;-89
2021/05/02 00:22:58;;;;;;;141.77;70.05;;;5.30;99.90;;;;;;5030977;28;20055;-88
2021/05/02 00:25:30;;;;;;;132.82;66.80;;;5.30;99.90;;;;;;5014017;28;20069;-89
2021/05/02 00:27:58;;;;;;;131.43;69.38;;;5.30;99.90;;;;;;5036311;28;20041;-90
2021/05/02 00:30:26;;;;;;;133.23;67.55;;;5.20;99.90;;;;;;5011254;28;20038;-89
2021/05/02 00:32:55;;;;;;;124.72;66.68;;;5.20;99.90;;;;;;5014600;28;20101;-91
2021/05/02 00:35:23;;;;;;;129.60;66.63;;;5.20;99.90;;;;;;5015109;28;20073;-88
2021/05/02 00:37:50;;;;;;;136.02;68.40;;;5.20;99.90;;;;;;5029281;28;20148;-91
2021/05/02 00:40:33;;;;;;;126.40;67.70;;;5.20;99.90;;;;;;5011529;28;20132;-91
2021/05/02 00:43:04;;;;;;;130.15;66.97;;;5.20;99.90;;;;;;5001269;28;20061;-90
2021/05/02 00:45:37;;;;;;;132.40;67.47;;;5.20;99.90;;;;;;5013421;28;20461;-91
2021/05/02 00:48:36;;;;;;;119.30;65.20;;;5.20;99.90;;;;;;5027643;28;20103;-90
2021/05/02 00:51:07;;;;;;;129.88;68.20;;;5.10;99.90;;;;;;5006092;28;20053;-90
2021/05/02 00:53:37;;;;;;;135.95;71.03;;;5.10;99.90;;;;;;5014919;28;20128;-91
2021/05/02 00:56:30;;;;;;;127.07;67.78;;;5.10;99.90;;;;;;5032190;28;20371;-91
2021/05/02 00:59:04;;;;;;;129.05;68.60;;;5.10;99.90;;;;;;5008012;28;20053;-91
2021/05/02 01:01:45;;;;;;;133.75;68.90;;;5.20;99.90;;;;;;5032532;28;20741;-90
2021/05/02 01:04:12;;;;;;;137.98;69.38;;;5.20;99.90;;;;;;5034695;28;20041;-90
2021/05/02 01:06:40;;;;;;;141.18;72.07;;;5.10;99.90;;;;;;5027910;28;20088;-91
2021/05/02 01:09:08;;;;;;;134.18;66.88;;;5.20;99.90;;;;;;5038622;28;20097;-90
2021/05/02 01:11:45;;;;;;;121.80;64.72;;;5.10;99.90;;;;;;5024780;28;20073;-90
2021/05/02 01:14:12;;;;;;;120.78;64.60;;;5.10;99.90;;;;;;5021084;28;20724;-89
2021/05/02 01:16:40;;;;;;;125.00;64.82;;;5.10;99.90;;;;;;5021733;28;20049;-90
2021/05/02 01:19:11;;;;;;;121.32;65.32;;;5.10;99.90;;;;;;5021197;28;20057;-90
2021/05/02 01:21:40;;;;;;;117.13;62.00;;;5.10;99.90;;;;;;5019694;28;20046;-89
2021/05/02 01:24:09;;;;;;;109.68;60.63;;;5.10;99.90;;;;;;5021636;28;20387;-92
2021/05/02 01:26:40;;;;;;;108.65;59.20;;;5.10;99.90;;;;;;5038792;28;20038;-89
2021/05/02 01:29:07;;;;;;;116.07;62.13;;;5.10;99.90;;;;;;5011315;28;20129;-90
2021/05/02 01:31:34;;;;;;;106.25;59.08;;;5.00;99.90;;;;;;5015838;28;20099;-89
2021/05/02 01:34:01;;;;;;;102.63;59.45;;;5.00;99.90;;;;;;5033594;28;20061;-91
2021/05/02 01:36:27;;;;;;;96.43;57.05;;;5.00;99.90;;;;;;5034295;28;20060;-90
2021/05/02 01:38:56;;;;;;;108.40;58.85;;;5.00;99.90;;;;;;5031760;28;20069;-89
2021/05/02 01:41:25;;;;;;;99.30;56.63;;;5.00;99.90;;;;;;5014340;28;20446;-87
2021/05/02 01:43:53;;;;;;;101.30;55.95;;;5.00;99.90;;;;;;5013214;28;20056;-88
2021/05/02 01:46:29;;;;;;;87.70;54.47;;;4.90;99.90;;;;;;5034131;28;20045;-90
2021/05/02 01:48:56;;;;;;;81.25;51.90;;;4.90;99.90;;;;;;5033257;28;20148;-89
2021/05/02 01:51:23;;;;;;;79.28;50.72;;;4.90;99.90;;;;;;5011580;28;20089;-90
2021/05/02 01:53:50;;;;;;;89.43;52.80;;;4.90;99.90;;;;;;5013673;28;20057;-89
2021/05/02 01:56:17;;;;;;;81.47;51.90;;;4.80;99.90;;;;;;5033860;28;20459;-88
2021/05/02 01:58:44;;;;;;;79.18;49.60;;;4.90;99.90;;;;;;5016233;28;20046;-89
2021/05/02 02:01:15;;;;;;;79.72;51.63;;;4.80;99.90;;;;;;5014410;28;20063;-86
2021/05/02 02:03:43;;;;;;;75.57;49.85;;;4.80;99.90;;;;;;5015885;28;20084;-88
2021/05/02 02:06:13;;;;;;;86.25;53.15;;;4.80;99.90;;;;;;5016345;28;20088;-84
2021/05/02 02:08:39;;;;;;;87.55;52.25;;;4.70;99.90;;;;;;5032662;28;20159;-90
2021/05/02 02:11:06;;;;;;;93.43;54.13;;;4.80;99.90;;;;;;5013678;28;20132;-88
2021/05/02 02:13:35;;;;;;;86.38;55.47;;;4.70;99.90;;;;;;5014961;28;20140;-88
2021/05/02 02:16:07;;;;;;;88.55;54.60;;;4.70;99.90;;;;;;5033720;28;20129;-89
2021/05/02 02:18:34;;;;;;;85.75;53.28;;;4.70;99.90;;;;;;5013013;28;20429;-89
2021/05/02 02:21:01;;;;;;;90.32;53.55;;;4.70;99.90;;;;;;5014822;28;20053;-89
2021/05/02 02:23:33;;;;;;;89.47;55.00;;;4.70;99.90;;;;;;5014908;28;20084;-89
2021/05/02 02:26:20;;;;;;;;;;;4.70;99.90;;;;;;5033757;28;20041;-90
2021/05/02 02:28:47;;;;;;;91.47;55.80;;;4.70;99.90;;;;;;5005949;28;19920;-89
2021/05/02 02:31:14;;;;;;;94.90;55.95;;;4.70;99.90;;;;;;5031861;28;20065;-88
2021/05/02 02:33:42;;;;;;;95.65;58.10;;;4.70;99.90;;;;;;5008392;28;20045;-89
2021/05/02 02:36:13;;;;;;;101.63;58.03;;;4.70;99.90;;;;;;5033859;28;20426;-91
2021/05/02 02:38:42;;;;;;;100.00;59.53;;;4.70;99.90;;;;;;5032887;28;20088;-90
2021/05/02 02:41:16;;;;;;;91.97;58.35;;;4.70;99.90;;;;;;5033400;28;20128;-90
2021/05/02 02:43:55;;;;;;;93.88;57.17;;;4.70;99.90;;;;;;5036690;28;20053;-90
2021/05/02 02:46:22;;;;;;;98.30;59.58;;;4.60;99.90;;;;;;5051737;28;20045;-90
2021/05/02 02:48:57;;;;;;;97.50;59.97;;;4.60;99.90;;;;;;5036259;28;20030;-90
2021/05/02 02:51:28;;;;;;;89.78;56.65;;;4.60;99.90;;;;;;5032288;28;20089;-89
2021/05/02 02:54:00;;;;;;;98.10;57.28;;;4.70;99.90;;;;;;5042783;28;20038;-85
2021/05/02 02:56:30;;;;;;;72.03;43.07;;;4.60;99.90;;;;;;5038431;28;20040;-90
2021/05/02 02:58:57;;;;;;;90.95;57.20;;;4.60;99.90;;;;;;5049629;28;20304;-89
2021/05/02 03:01:27;;;;;;;103.75;59.88;;;4.60;99.90;;;;;;5027212;28;20076;-90
2021/05/02 03:04:00;;;;;;;102.63;60.10;;;4.60;99.90;;;;;;5010184;28;20634;-90
2021/05/02 03:06:28;;;;;;;101.90;58.70;;;4.60;99.90;;;;;;5016355;28;20088;-90
2021/05/02 03:08:56;;;;;;;109.32;61.47;;;4.70;99.90;;;;;;5039790;28;20091;-89
2021/05/02 03:11:25;;;;;;;103.40;60.35;;;4.60;99.90;;;;;;5006952;28;20073;-90
2021/05/02 03:13:53;;;;;;;102.97;58.78;;;4.60;99.90;;;;;;5021178;28;20049;-90
2021/05/02 03:16:23;;;;;;;91.72;59.38;;;4.60;99.90;;;;;;5023024;28;20132;-91
2021/05/02 03:18:59;;;;;;;96.78;59.17;;;4.60;99.90;;;;;;5025170;28;20061;-85
2021/05/02 03:21:37;;;;;;;94.05;55.10;;;4.60;99.90;;;;;;5030277;28;20327;-92
2021/05/02 03:24:07;;;;;;;100.45;59.88;;;4.60;99.90;;;;;;5032846;28;20073;-90
2021/05/02 03:26:38;;;;;;;97.15;60.50;;;4.60;99.90;;;;;;5017121;28;20041;-91
2021/05/02 03:29:06;;;;;;;99.18;59.60;;;4.60;99.90;;;;;;5033393;28;20119;-90
2021/05/02 03:31:35;;;;;;;104.00;61.63;;;4.60;99.90;;;;;;5032752;28;20121;-91
2021/05/02 03:34:04;;;;;;;97.75;60.78;;;4.60;99.90;;;;;;5009093;28;20060;-91
2021/05/02 03:36:42;;;;;;;88.05;57.67;;;4.60;99.90;;;;;;5012435;28;20551;-90
2021/05/02 03:39:12;;;;;;;101.10;62.88;;;4.50;99.90;;;;;;5027414;28;20144;-90
2021/05/02 03:41:38;;;;;;;97.68;62.65;;;4.50;99.90;;;;;;5013630;28;20061;-90
2021/05/02 03:44:07;;;;;;;98.28;63.08;;;4.50;99.90;;;;;;5013209;28;20153;-91
2021/05/02 03:46:34;;;;;;;109.00;69.07;;;4.40;99.90;;;;;;5029698;28;20116;-90
2021/05/02 03:49:08;;;;;;;105.88;65.75;;;4.50;99.90;;;;;;5013983;28;20065;-90
2021/05/02 03:51:38;;;;;;;101.18;63.72;;;4.50;99.90;;;;;;5030243;28;20148;-86
2021/05/02 03:54:06;;;;;;;101.05;63.40;;;4.50;99.90;;;;;;5030577;28;20534;-88
2021/05/02 03:56:43;;;;;;;93.05;59.90;;;4.50;99.90;;;;;;5013949;28;20056;-91
2021/05/02 03:59:15;;;;;;;106.40;62.30;;;4.40;99.90;;;;;;5014256;28;20140;-89
2021/05/02 04:01:53;;;;;;;101.72;63.47;;;4.40;99.90;;;;;;5014104;28;20459;-89
2021/05/02 04:04:30;;;;;;;105.88;66.68;;;4.40;99.90;;;;;;5009026;28;20037;-88
2021/05/02 04:06:59;;;;;;;110.82;67.40;;;4.40;99.90;;;;;;5029267;28;20077;-88
2021/05/02 04:09:25;;;;;;;118.18;71.45;;;4.40;99.90;;;;;;5013207;28;20052;-88
2021/05/02 04:11:54;;;;;;;112.50;68.50;;;4.40;99.90;;;;;;5008130;28;20216;-90
2021/05/02 04:14:21;;;;;;;112.07;68.75;;;4.40;99.90;;;;;;5030198;28;20453;-89
2021/05/02 04:17:05;;;;;;;116.82;70.50;;;4.40;99.90;;;;;;5014477;28;20490;-88
2021/05/02 04:19:35;;;;;;;116.05;70.88;;;4.30;99.90;;;;;;5012618;28;20038;-88
2021/05/02 04:22:01;;;;;;;112.78;69.20;;;4.40;99.90;;;;;;5012645;28;20144;-89
2021/05/02 04:24:29;;;;;;;117.28;70.55;;;4.40;99.90;;;;;;5011420;28;20130;-90
2021/05/02 04:27:00;;;;;;;116.88;71.38;;;4.30;99.90;;;;;;5031219;28;20092;-87
2021/05/02 04:29:32;;;;;;;119.57;72.50;;;4.30;99.90;;;;;;5008439;28;20057;-88
2021/05/02 04:32:02;;;;;;;115.47;68.80;;;4.30;99.90;;;;;;5008103;28;20367;-88
2021/05/02 04:34:29;;;;;;;118.93;72.25;;;4.30;99.90;;;;;;4995681;28;20049;-90
2021/05/02 04:36:59;;;;;;;116.55;72.43;;;4.30;99.90;;;;;;5013877;28;20469;-88
2021/05/02 04:39:27;;;;;;;115.55;71.05;;;4.40;99.90;;;;;;5013596;28;20563;-89
2021/05/02 04:41:57;;;;;;;111.78;68.68;;;4.40;99.90;;;;;;5012743;28;20085;-88
2021/05/02 04:44:25;;;;;;;114.07;69.75;;;4.40;99.90;;;;;;5014186;28;20127;-90
2021/05/02 04:46:53;;;;;;;106.00;67.22;;;4.40;99.90;;;;;;5031073;28;20049;-88
2021/05/02 04:49:22;;;;;;;106.47;65.97;;;4.40;99.90;;;;;;5032405;28;20045;-89
2021/05/02 04:51:48;;;;;;;111.13;68.15;;;4.40;99.90;;;;;;5018501;28;20061;-88
2021/05/02 04:54:18;;;;;;;109.50;67.22;;;4.40;99.90;;;;;;5023227;28;20113;-89
2021/05/02 04:56:44;;;;;;;109.72;68.03;;;4.40;99.90;;;;;;5023813;28;20045;-88
2021/05/02 04:59:13;;;;;;;105.85;68.45;;;4.50;99.90;;;;;;5037631;28;20081;-90
2021/05/02 05:01:42;;;;;;;113.00;68.45;;;4.50;99.90;;;;;;4994561;28;20054;-91
2021/05/02 05:04:13;;;;;;;100.30;64.22;;;4.50;99.90;;;;;;5021928;28;20045;-91
2021/05/02 05:06:42;;;;;;;101.47;61.83;;;4.50;99.90;;;;;;5019685;28;20483;-91
2021/05/02 05:09:08;;;;;;;100.35;64.18;;;4.60;99.90;;;;;;5020330;28;20049;-91
2021/05/02 05:11:36;;;;;;;100.65;62.75;;;4.50;99.90;;;;;;5024923;28;20073;-91
2021/05/02 05:14:04;;;;;;;101.05;64.75;;;4.60;99.90;;;;;;5042679;28;20083;-91
2021/05/02 05:16:34;;;;;;;104.88;64.72;;;4.60;99.90;;;;;;5016440;28;20133;-90
2021/05/02 05:21:33;;;;;;;105.07;64.93;;;4.50;99.90;;;;;;4899470;23;20049;-86
2021/05/02 05:24:00;;;;;;;97.40;63.00;;;4.50;99.90;;;;;;4995048;28;20145;-86
2021/05/02 05:26:27;;;;;;;101.72;62.35;;;4.50;99.90;;;;;;4991837;28;20105;-86
2021/05/02 05:28:54;;;;;;;94.47;61.20;;;4.50;99.90;;;;;;4992586;28;20045;-86
2021/05/02 05:31:20;;;;;;;102.72;61.85;;;4.60;99.90;;;;;;4977297;28;20538;-87
2021/05/02 05:33:47;;;;;;;104.45;63.97;;;4.60;99.90;;;;;;4992008;28;20112;-85
2021/05/02 05:36:13;;;;;;;93.30;61.83;;;4.70;99.90;;;;;;4984542;28;20054;-87
2021/05/02 05:38:40;;;;;;;88.65;60.78;;;4.70;99.90;;;;;;5010326;28;20379;-87
2021/05/02 05:41:06;;;;;;;97.50;59.10;;;4.70;99.90;;;;;;5011049;28;20427;-86
2021/05/02 05:43:33;;;;;;;81.90;54.53;;;4.80;99.90;;;;;;4977928;28;20045;-84
2021/05/02 05:46:00;;;;;;;75.93;53.90;;;4.80;99.90;;;;;;5011843;28;20137;-86
2021/05/02 05:48:26;;;;;;;67.32;48.35;;;4.90;99.90;;;;;;4995015;28;20129;-86
2021/05/02 05:50:53;;;;;;;72.05;51.47;;;4.90;99.90;;;;;;5023257;28;20050;-85
2021/05/02 05:53:20;;;;;;;75.82;52.03;;;5.00;99.90;;;;;;4984749;28;20037;-86
2021/05/02 05:55:47;;;;;;;75.57;50.33;;;5.10;99.90;;;;;;5002745;28;20101;-86
2021/05/02 05:58:13;;;;;;;67.65;48.10;;;5.20;99.90;;;;;;4992724;28;20054;-86
2021/05/02 06:00:40;;;;;;;72.32;50.80;;;5.30;99.90;;;;;;4994244;28;20438;-85
2021/05/02 06:03:07;;;;;;;71.65;47.75;;;5.30;99.90;;;;;;5002912;28;20077;-85
2021/05/02 06:05:33;;;;;;;71.88;49.38;;;5.40;99.90;;;;;;4977476;28;20034;-86
2021/05/02 06:08:00;;;;;;;71.05;48.80;;;5.40;99.90;;;;;;4998494;28;20073;-84
2021/05/02 06:10:26;;;;;;;77.13;49.00;;;5.40;99.90;;;;;;4999308;28;20108;-84
2021/05/02 06:12:54;;;;;;;66.43;46.08;;;5.50;99.90;;;;;;5014250;28;20061;-85
2021/05/02 06:15:23;;;;;;;62.22;45.03;;;5.40;99.90;;;;;;4996275;28;20466;-85
2021/05/02 06:17:49;;;;;;;66.45;46.47;;;5.40;99.90;;;;;;5013471;28;20108;-86
2021/05/02 06:20:16;;;;;;;67.20;47.97;;;5.40;99.90;;;;;;4995700;28;20297;-86
2021/05/02 06:22:43;;;;;;;74.25;48.90;;;5.30;99.90;;;;;;4958582;28;20055;-85
2021/05/02 06:25:10;;;;;;;69.15;48.58;;;5.40;99.90;;;;;;4975374;28;20054;-86
2021/05/02 06:27:37;;;;;;;69.40;46.42;;;5.30;99.90;;;;;;4994447;28;20050;-84
2021/05/02 06:30:05;;;;;;;74.80;50.45;;;5.40;99.90;;;;;;4998964;28;20120;-86
2021/05/02 06:32:31;;;;;;;67.10;47.20;;;5.40;99.90;;;;;;4984610;28;20677;-87
2021/05/02 06:34:58;;;;;;;67.40;46.67;;;5.60;99.90;;;;;;4970785;28;20085;-89
2021/05/02 06:37:26;;;;;;;61.40;44.25;;;5.80;99.90;;;;;;4996107;28;20121;-88
2021/05/02 06:39:58;;;;;;;59.45;42.15;;;6.00;99.90;;;;;;4999823;28;20669;-89
2021/05/02 06:43:08;;;;;;;50.28;38.78;;;6.40;99.90;;;;;;4985839;28;20917;-87
2021/05/02 06:45:35;;;;;;;42.85;32.20;;;6.90;99.90;;;;;;4987257;28;20050;-89
2021/05/02 06:48:01;;;;;;;43.38;34.47;;;7.30;99.90;;;;;;4976523;28;20118;-88
2021/05/02 06:50:28;;;;;;;40.38;31.45;;;7.30;99.90;;;;;;4980331;28;20114;-88
2021/05/02 06:52:55;;;;;;;45.58;32.20;;;7.40;99.90;;;;;;4986253;28;20133;-86
2021/05/02 06:55:22;;;;;;;43.47;33.40;;;7.30;99.90;;;;;;4971248;28;20109;-86
2021/05/02 06:57:48;;;;;;;39.60;31.65;;;7.30;99.90;;;;;;4956819;28;20415;-86
2021/05/02 07:00:17;;;;;;;36.60;29.50;;;7.40;99.90;;;;;;4987102;28;20066;-85
2021/05/02 07:02:43;;;;;;;35.38;27.33;;;7.40;99.90;;;;;;4976048;28;20074;-85
2021/05/02 07:05:10;;;;;;;36.15;27.70;;;7.40;99.90;;;;;;4978543;28;20129;-86
2021/05/02 07:07:37;;;;;;;40.33;30.42;;;7.10;99.90;;;;;;4970189;28;20046;-85
2021/05/02 07:10:06;;;;;;;40.65;30.13;;;7.00;99.90;;;;;;5003510;28;20129;-82
2021/05/02 07:12:38;;;;;;;39.35;29.50;;;7.00;99.90;;;;;;4977832;28;20109;-86
2021/05/02 07:15:05;;;;;;;38.88;30.92;;;7.10;99.90;;;;;;4995786;28;20380;-86
2021/05/02 07:17:32;;;;;;;43.65;31.23;;;7.10;99.90;;;;;;4986302;28;20050;-85
2021/05/02 07:19:59;;;;;;;37.55;29.40;;;7.10;99.90;;;;;;4975947;28;20146;-85
2021/05/02 07:22:29;;;;;;;37.75;27.02;;;7.20;99.90;;;;;;4982253;28;20136;-85
2021/05/02 07:24:58;;;;;;;31.33;24.27;;;7.50;99.90;;;;;;4995402;28;20133;-85
2021/05/02 07:27:24;;;;;;;28.88;23.77;;;8.10;99.90;;;;;;4994380;28;20088;-85
2021/05/02 07:29:51;;;;;;;27.50;22.55;;;8.70;99.90;;;;;;4999224;28;20057;-83
2021/05/02 07:32:18;;;;;;;30.27;21.20;;;8.80;99.90;;;;;;4994396;28;20053;-85
2021/05/02 07:34:45;;;;;;;25.05;21.02;;;9.10;99.90;;;;;;4996990;28;20065;-85
2021/05/02 07:37:11;;;;;;;26.10;21.23;;;9.30;99.90;;;;;;5010821;28;20435;-84
2021/05/02 07:39:40;;;;;;;26.67;20.63;;;9.50;99.90;;;;;;4993401;28;20119;-85
2021/05/02 07:42:07;;;;;;;23.92;20.15;;;10.00;99.90;;;;;;5011873;28;20112;-85
2021/05/02 07:44:33;;;;;;;24.38;19.85;;;9.70;99.90;;;;;;4994672;28;20100;-85
2021/05/02 07:47:00;;;;;;;23.55;19.52;;;9.60;99.90;;;;;;4995040;28;20046;-85
2021/05/02 07:49:27;;;;;;;21.85;19.23;;;10.10;99.90;;;;;;4993266;28;20145;-85
2021/05/02 07:51:54;;;;;;;24.80;19.30;;;10.00;99.90;;;;;;5009468;28;20054;-85
2021/05/02 07:54:20;;;;;;;23.13;17.00;;;10.40;99.90;;;;;;4993308;28;20092;-84
2021/05/02 07:56:50;;;;;;;26.48;19.33;;;10.40;99.90;;;;;;4992278;28;20111;-86
2021/05/02 07:59:19;;;;;;;21.17;17.30;;;10.50;99.90;;;;;;4993344;28;20118;-83
2021/05/02 08:01:45;;;;;;;21.38;16.42;;;10.60;99.90;;;;;;4993209;28;20153;-84
2021/05/02 08:04:12;;;;;;;18.80;15.70;;;10.90;99.90;;;;;;4993559;28;20471;-84
2021/05/02 08:06:39;;;;;;;17.70;14.77;;;11.30;99.90;;;;;;4993336;28;20042;-86
2021/05/02 08:09:06;;;;;;;17.35;15.52;;;11.50;99.90;;;;;;5008487;28;20088;-85
2021/05/02 08:11:33;;;;;;;20.45;16.00;;;11.60;99.90;;;;;;4999325;28;20177;-84
2021/05/02 08:14:00;;;;;;;21.05;14.63;;;11.70;99.90;;;;;;4991567;28;20057;-85
2021/05/02 08:16:29;;;;;;;20.00;16.73;;;11.60;99.90;;;;;;4993812;28;20053;-85
2021/05/02 08:18:57;;;;;;;18.00;15.40;;;11.70;99.90;;;;;;5010245;28;20167;-86
2021/05/02 08:22:15;;;;;;;16.90;14.35;;;11.80;99.90;;;;;;4988420;28;20146;-86
2021/05/02 08:24:43;;;;;;;17.85;14.68;;;11.90;98.50;;;;;;4994148;28;20066;-86
2021/05/02 08:27:11;;;;;;;21.95;14.00;;;11.40;99.90;;;;;;5010649;28;20064;-85
2021/05/02 08:29:37;;;;;;;20.92;15.90;;;11.30;99.30;;;;;;5010435;28;20042;-86
2021/05/02 08:32:04;;;;;;;18.88;14.80;;;11.20;99.90;;;;;;4993785;28;20066;-86
2021/05/02 08:34:34;;;;;;;18.88;15.40;;;11.30;99.90;;;;;;5011011;28;20050;-84
2021/05/02 08:37:02;;;;;;;15.48;13.88;;;11.20;97.70;;;;;;4995185;28;20141;-84
2021/05/02 08:39:28;;;;;;;19.88;16.55;;;11.30;99.90;;;;;;4993700;28;20049;-84
2021/05/02 08:41:57;;;;;;;17.20;14.52;;;11.30;99.90;;;;;;4994413;28;20128;-84
2021/05/02 08:44:26;;;;;;;18.42;13.98;;;11.40;99.90;;;;;;5000109;28;20053;-85
2021/05/02 08:46:53;;;;;;;16.77;14.93;;;11.60;98.20;;;;;;4999766;28;20096;-85
2021/05/02 08:49:20;;;;;;;17.55;14.68;;;11.70;99.90;;;;;;5026115;28;20106;-84
2021/05/02 08:51:48;;;;;;;17.73;15.02;;;11.80;99.90;;;;;;5008251;28;20120;-85
2021/05/02 08:54:14;;;;;;;18.83;15.00;;;11.70;97.10;;;;;;5020460;28;20781;-86
2021/05/02 08:56:41;;;;;;;22.38;14.25;;;11.60;95.80;;;;;;4999635;28;20119;-86
2021/05/02 08:59:09;;;;;;;18.20;14.88;;;11.60;98.10;;;;;;5009687;28;20048;-86
2021/05/02 09:01:36;;;;;;;22.95;14.40;;;11.60;97.50;;;;;;4993664;28;20053;-85
2021/05/02 09:04:07;;;;;;;19.92;14.43;;;11.90;99.90;;;;;;4996418;28;20046;-85
2021/05/02 09:06:37;;;;;;;19.17;14.00;;;12.30;95.70;;;;;;4994832;28;20628;-86
2021/05/02 09:09:06;;;;;;;17.00;14.60;;;12.90;88.90;;;;;;5008092;28;20054;-86
2021/05/02 09:11:47;;;;;;;15.18;13.57;;;13.10;97.00;;;;;;5023857;28;20506;-86
2021/05/02 09:14:17;;;;;;;16.77;13.93;;;14.00;86.20;;;;;;5024288;28;20172;-86
2021/05/02 09:16:54;;;;;;;15.82;13.27;;;13.90;81.20;;;;;;5011058;28;20050;-86
2021/05/02 09:19:25;;;;;;;15.95;13.75;;;13.70;82.90;;;;;;5013510;28;20045;-86
2021/05/02 09:21:55;;;;;;;17.92;14.88;;;13.30;84.40;;;;;;4996713;28;20056;-85
2021/05/02 09:24:25;;;;;;;19.13;15.20;;;12.80;79.10;;;;;;5015921;28;20042;-86
2021/05/02 09:27:11;;;;;;;18.15;15.13;;;12.60;81.10;;;;;;5010930;28;20084;-85
2021/05/02 09:29:43;;;;;;;23.30;14.88;;;12.90;84.90;;;;;;4987048;28;20049;-86
2021/05/02 09:32:15;;;;;;;15.43;13.80;;;14.10;76.70;;;;;;5024718;28;20420;-85
2021/05/02 09:34:52;;;;;;;16.55;14.18;;;14.20;73.10;;;;;;5012440;28;20144;-86
2021/05/02 09:37:30;;;;;;;18.67;15.75;;;13.80;71.00;;;;;;5003843;28;20053;-85
2021/05/02 09:40:01;;;;;;;18.63;16.60;;;12.90;72.40;;;;;;5011658;28;20046;-85
2021/05/02 09:42:35;;;;;;;19.67;17.05;;;12.30;77.20;;;;;;4994384;28;20054;-86
2021/05/02 09:45:09;;;;;;;22.02;16.95;;;11.90;84.70;;;;;;4996762;28;20147;-85
2021/05/02 09:47:41;;;;;;;23.77;17.45;;;11.50;86.20;;;;;;5014005;28;20107;-85
2021/05/02 09:50:25;;;;;;;21.77;18.00;;;10.90;87.40;;;;;;5014044;28;20309;-85
2021/05/02 09:52:53;;;;;;;24.52;20.00;;;10.40;90.90;;;;;;5009530;28;20116;-85
2021/05/02 09:55:34;;;;;;;21.70;17.98;;;10.60;95.70;;;;;;5023316;28;20360;-84
2021/05/02 09:58:06;;;;;;;25.48;15.93;;;11.70;90.30;;;;;;5014384;28;20046;-83
2021/05/02 10:00:36;;;;;;;;;;;13.20;83.40;;;;;;5019635;28;20112;-84
2021/05/02 10:03:09;;;;;;;16.25;14.52;;;15.10;77.70;;;;;;4997264;28;20052;-88
2021/05/02 10:05:51;;;;;;;16.50;14.18;;;16.50;62.50;;;;;;4998154;28;20077;-86
2021/05/02 10:08:20;;;;;;;17.60;15.70;;;16.70;58.40;;;;;;5013407;28;20042;-86
2021/05/02 10:10:49;;;;;;;17.75;14.52;;;16.70;56.80;;;;;;5022098;28;20046;-86
2021/05/02 10:13:16;;;;;;;18.10;15.07;;;16.20;57.50;;;;;;5025800;28;20050;-85
2021/05/02 10:15:45;;;;;;;16.80;14.15;;;15.40;60.00;;;;;;5024671;28;20065;-86
2021/05/02 10:18:14;;;;;;;18.73;15.30;;;14.40;66.20;;;;;;5028808;28;20070;-85
2021/05/02 10:20:51;;;;;;;20.60;15.50;;;13.70;67.90;;;;;;5029580;28;20080;-85
2021/05/02 10:23:20;;;;;;;18.92;16.45;;;13.30;69.10;;;;;;5022238;28;20149;-85
2021/05/02 10:25:52;;;;;;;21.48;16.85;;;12.90;79.20;;;;;;5019974;28;20483;-87
2021/05/02 10:28:26;;;;;;;26.88;19.65;;;12.60;94.60;;;;;;5000010;28;20161;-85
2021/05/02 10:30:58;;;;;;;22.85;17.33;;;13.00;97.70;;;;;;5000780;28;20179;-87
2021/05/02 10:33:35;;;;;;;23.08;18.70;;;12.80;83.10;;;;;;4999053;28;20076;-87
2021/05/02 10:36:10;;;;;;;20.67;17.63;;;12.40;86.90;;;;;;5020465;28;20120;-86
2021/05/02 10:39:02;;;;;;;20.40;17.60;;;12.20;87.40;;;;;;4983447;28;20046;-86
2021/05/02 10:41:48;;;;;;;21.35;17.88;;;12.20;89.40;;;;;;5014593;28;20501;-86
2021/05/02 10:44:15;;;;;;;20.95;17.95;;;12.10;86.70;;;;;;5012489;28;20444;-85
2021/05/02 10:46:42;;;;;;;22.70;17.20;;;12.30;85.20;;;;;;4997650;28;20054;-86
2021/05/02 10:49:15;;;;;;;25.98;17.17;;;12.50;83.90;;;;;;5012511;28;20120;-85
2021/05/02 10:51:41;;;;;;;;;;;12.90;78.50;;;;;;5018450;28;20131;-84
2021/05/02 10:54:13;;;;;;;21.48;15.30;;;13.20;72.00;;;;;;5022631;28;19922;-86
2021/05/02 10:56:41;;;;;;;16.98;14.50;;;13.30;74.30;;;;;;5026696;28;20347;-87
2021/05/02 10:59:11;;;;;;;17.88;13.98;;;13.80;66.80;;;;;;5006258;28;20136;-86
2021/05/02 11:01:38;;;;;;;17.42;14.00;;;14.80;63.50;;;;;;4978528;28;20043;-86
2021/05/02 11:04:05;;;;;;;19.17;14.07;;;15.70;58.70;;;;;;5012753;28;20064;-86
2021/05/02 11:06:41;;;;;;;13.10;11.65;;;16.60;57.00;;;;;;4995580;28;20586;-86
2021/05/02 11:09:10;;;;;;;14.18;11.45;;;17.20;58.30;;;;;;5011703;28;20470;-85
2021/05/02 11:11:46;;;;;;;11.80;10.60;;;18.50;52.90;;;;;;4996072;28;20056;-85
2021/05/02 11:14:21;;;;;;;13.40;11.40;;;19.30;46.60;;;;;;5009072;28;20074;-86
2021/05/02 11:16:50;;;;;;;12.95;11.48;;;18.90;48.40;;;;;;5015548;28;20045;-87
2021/05/02 11:19:20;;;;;;;13.60;12.07;;;17.40;50.30;;;;;;5012154;28;20074;-86
2021/05/02 11:21:46;;;;;;;15.52;11.90;;;16.50;55.80;;;;;;4994836;28;20475;-86
2021/05/02 11:24:49;;;;;;;18.02;12.20;;;16.50;53.40;;;;;;5015602;28;20125;-85
2021/05/02 11:27:21;;;;;;;15.30;11.90;;;16.60;57.40;;;;;;5011830;28;20086;-86
2021/05/02 11:30:05;;;;;;;13.48;12.07;;;16.50;56.80;;;;;;5015485;28;20072;-84
2021/05/02 11:32:40;;;;;;;14.88;12.15;;;15.90;57.30;;;;;;5012268;28;20046;-87
2021/05/02 11:35:09;;;;;;;18.42;13.85;;;15.20;58.80;;;;;;5009434;28;20109;-87
2021/05/02 11:38:05;;;;;;;16.98;13.45;;;14.70;59.80;;;;;;5011716;28;20148;-86
2021/05/02 11:40:32;;;;;;;16.00;13.57;;;14.20;61.70;;;;;;4994119;28;20104;-86
2021/05/02 11:43:23;;;;;;;15.82;14.15;;;13.50;67.40;;;;;;5011238;28;20101;-85
2021/05/02 11:45:53;;;;;;;18.60;15.68;;;12.70;69.50;;;;;;5010983;28;20057;-83
2021/05/02 11:48:24;;;;;;;19.52;17.33;;;11.60;82.00;;;;;;4993975;28;20072;-85
2021/05/02 11:51:00;;;;;;;22.02;16.98;;;10.80;99.90;;;;;;5012866;28;20511;-84
2021/05/02 11:53:47;;;;;;;20.38;17.98;;;10.10;99.90;;;;;;4979056;28;20072;-84
2021/05/02 11:56:27;;;;;;;25.02;21.20;;;9.50;99.90;;;;;;4991814;28;20046;-84
2021/05/02 11:58:56;;;;;;;22.88;20.38;;;9.30;99.90;;;;;;4989927;28;20049;-84
2021/05/02 12:01:30;;;;;;;25.45;21.63;;;9.50;99.90;;;;;;4991204;28;20101;-84
2021/05/02 12:04:06;;;;;;;26.67;21.73;;;9.70;99.90;;;;;;4982652;28;20368;-83
2021/05/02 12:06:35;;;;;;;28.65;22.27;;;9.80;99.90;;;;;;4978361;28;20066;-85
2021/05/02 12:09:19;;;;;;;22.15;18.50;;;10.00;99.90;;;;;;4994154;28;20049;-85
2021/05/02 12:11:54;;;;;;;16.35;13.73;;;9.90;99.90;;;;;;4997549;28;20068;-84
2021/05/02 12:14:24;;;;;;;15.65;12.88;;;9.70;99.90;;;;;;4994590;28;20046;-85
2021/05/02 12:16:55;;;;;;;14.07;12.57;;;9.60;99.90;;;;;;5006041;28;20080;-85
2021/05/02 12:19:32;;;;;;;15.40;13.15;;;9.60;99.90;;;;;;5012022;28;20054;-85
2021/05/02 12:21:59;;;;;;;15.23;12.93;;;9.70;99.90;;;;;;4986757;28;20109;-84
2021/05/02 12:24:32;;;;;;;17.20;13.95;;;9.90;99.90;;;;;;4976558;28;20101;-86
2021/05/02 12:27:02;;;;;;;15.88;13.73;;;10.20;99.90;;;;;;4975955;28;20043;-86
2021/05/02 12:29:35;;;;;;;16.65;13.25;;;10.60;99.90;;;;;;4993206;28;20440;-85
2021/05/02 12:32:17;;;;;;;15.10;13.50;;;11.00;99.90;;;;;;5004654;28;20041;-85
2021/05/02 12:34:48;;;;;;;14.27;12.48;;;11.40;99.90;;;;;;5009851;28;20054;-84
2021/05/02 12:37:17;;;;;;;14.88;12.65;;;11.60;99.90;;;;;;4975457;28;20042;-85
2021/05/02 12:39:49;;;;;;;14.73;12.73;;;11.70;99.90;;;;;;4982752;28;20050;-85
2021/05/02 12:42:16;;;;;;;;;;;11.70;99.90;;;;;;4974624;28;20168;-84
2021/05/02 12:44:52;;;;;;;17.05;14.20;;;11.80;99.90;;;;;;4975016;28;19960;-84
2021/05/02 12:47:19;;;;;;;15.05;13.00;;;12.00;99.90;;;;;;4978932;28;20122;-85
2021/05/02 12:49:57;;;;;;;12.48;11.27;;;12.40;99.90;;;;;;4991540;28;20068;-86